Weather at Bishell's Airport

Public forecast

Using degrees Celsius for public forecast. Weather courtesy of forecast.io.

Closest aviation weather report (METAR) to Bishell's Airport

Closest report is Calgary International Airport, 27.9 nm (51.7 km) S.

2024/05/29 19:00 (retrieved 16 minutes ago)

CYYC 291900Z 27011G22KT 210V310 40SM FEW100 SCT160 SCT240 16/M08 A2979 RMK CU1AC2CC1 SLP091 DENSITY ALT 4800FT

Closest aviation forecast (TAF) to Bishell's Airport

Closest forecast is Calgary International Airport, 27.9 nm (51.7 km) S.

2024/05/29 18:42 (retrieved 34 minutes ago)

TAF TAF CYYC 291740Z 2918/3018 26020G30KT P6SM FEW120 SCT300 FM292300 32018G28KT P6SM VCSH SCT090 BECMG 3000/3002 33012KT FM300300 33012KT P6SM FEW080 BECMG 3005/3007 29010KT FM300900 29010KT P6SM SCT070 TEMPO 3009/3016 BKN070 FM301600 32012KT P6SM BKN060 TEMPO 3016/3018 P6SM -SHRA BKN050 RMK NXT FCST BY 292100Z